sensor_id;sensor_type;location;lat;lon;timestamp;P1;durP1;ratioP1;P2;durP2;ratioP2
3487;SDS011;38546;48.170;11.724;2024-03-06T00:02:21;53.33;;;25.57;;
3487;SDS011;38546;48.170;11.724;2024-03-06T00:04:52;48.87;;;24.90;;
3487;SDS011;38546;48.170;11.724;2024-03-06T00:07:24;50.57;;;26.17;;
3487;SDS011;38546;48.170;11.724;2024-03-06T00:09:54;61.03;;;26.60;;
3487;SDS011;38546;48.170;11.724;2024-03-06T00:12:25;50.97;;;26.03;;
3487;SDS011;38546;48.170;11.724;2024-03-06T00:14:56;53.77;;;24.83;;
3487;SDS011;38546;48.170;11.724;2024-03-06T00:17:26;57.60;;;26.10;;
3487;SDS011;38546;48.170;11.724;2024-03-06T00:19:57;57.27;;;27.73;;
3487;SDS011;38546;48.170;11.724;2024-03-06T00:22:28;62.47;;;31.20;;
3487;SDS011;38546;48.170;11.724;2024-03-06T00:24:58;54.93;;;24.93;;
3487;SDS011;38546;48.170;11.724;2024-03-06T00:27:29;55.80;;;24.33;;
3487;SDS011;38546;48.170;11.724;2024-03-06T00:30:00;53.10;;;24.70;;
3487;SDS011;38546;48.170;11.724;2024-03-06T00:32:31;52.53;;;24.90;;
3487;SDS011;38546;48.170;11.724;2024-03-06T00:35:02;50.97;;;26.10;;
3487;SDS011;38546;48.170;11.724;2024-03-06T00:37:34;54.80;;;24.43;;
3487;SDS011;38546;48.170;11.724;2024-03-06T00:40:05;52.27;;;24.97;;
3487;SDS011;38546;48.170;11.724;2024-03-06T00:42:37;54.73;;;26.33;;
3487;SDS011;38546;48.170;11.724;2024-03-06T00:45:10;61.90;;;27.53;;
3487;SDS011;38546;48.170;11.724;2024-03-06T00:47:41;60.33;;;27.67;;
3487;SDS011;38546;48.170;11.724;2024-03-06T00:50:12;52.70;;;26.63;;
3487;SDS011;38546;48.170;11.724;2024-03-06T00:52:42;61.93;;;28.13;;
3487;SDS011;38546;48.170;11.724;2024-03-06T00:55:14;51.70;;;25.40;;
3487;SDS011;38546;48.170;11.724;2024-03-06T00:57:45;49.53;;;23.10;;
3487;SDS011;38546;48.170;11.724;2024-03-06T01:00:16;65.60;;;28.70;;
3487;SDS011;38546;48.170;11.724;2024-03-06T01:02:48;58.37;;;28.60;;
3487;SDS011;38546;48.170;11.724;2024-03-06T01:05:19;56.27;;;27.63;;
3487;SDS011;38546;48.170;11.724;2024-03-06T01:07:50;62.87;;;27.00;;
3487;SDS011;38546;48.170;11.724;2024-03-06T01:10:20;62.70;;;27.57;;
3487;SDS011;38546;48.170;11.724;2024-03-06T01:12:51;58.40;;;27.57;;
3487;SDS011;38546;48.170;11.724;2024-03-06T01:15:22;52.17;;;23.20;;
3487;SDS011;38546;48.170;11.724;2024-03-06T01:17:54;52.97;;;27.37;;
3487;SDS011;38546;48.170;11.724;2024-03-06T01:20:24;51.33;;;25.70;;
3487;SDS011;38546;48.170;11.724;2024-03-06T01:22:55;66.13;;;28.80;;
3487;SDS011;38546;48.170;11.724;2024-03-06T01:25:26;66.03;;;30.00;;
3487;SDS011;38546;48.170;11.724;2024-03-06T01:27:56;62.03;;;30.83;;
3487;SDS011;38546;48.170;11.724;2024-03-06T01:30:27;58.50;;;28.00;;
3487;SDS011;38546;48.170;11.724;2024-03-06T01:32:58;68.13;;;29.40;;
3487;SDS011;38546;48.170;11.724;2024-03-06T01:35:29;67.30;;;30.00;;
3487;SDS011;38546;48.170;11.724;2024-03-06T01:37:59;62.57;;;29.60;;
3487;SDS011;38546;48.170;11.724;2024-03-06T01:40:31;70.87;;;30.30;;
3487;SDS011;38546;48.170;11.724;2024-03-06T01:43:02;60.50;;;27.77;;
3487;SDS011;38546;48.170;11.724;2024-03-06T01:45:33;58.80;;;28.33;;
3487;SDS011;38546;48.170;11.724;2024-03-06T01:48:05;65.07;;;28.87;;
3487;SDS011;38546;48.170;11.724;2024-03-06T01:50:38;80.30;;;32.00;;
3487;SDS011;38546;48.170;11.724;2024-03-06T01:53:09;67.30;;;30.40;;
3487;SDS011;38546;48.170;11.724;2024-03-06T01:55:40;65.10;;;26.90;;
3487;SDS011;38546;48.170;11.724;2024-03-06T01:58:11;65.47;;;29.30;;
3487;SDS011;38546;48.170;11.724;2024-03-06T02:00:42;62.30;;;28.23;;
3487;SDS011;38546;48.170;11.724;2024-03-06T02:03:13;66.30;;;29.10;;
3487;SDS011;38546;48.170;11.724;2024-03-06T02:05:44;61.80;;;27.60;;
3487;SDS011;38546;48.170;11.724;2024-03-06T02:08:15;59.47;;;26.07;;
3487;SDS011;38546;48.170;11.724;2024-03-06T02:10:46;63.47;;;27.77;;
3487;SDS011;38546;48.170;11.724;2024-03-06T02:13:17;64.33;;;26.37;;
3487;SDS011;38546;48.170;11.724;2024-03-06T02:15:48;57.53;;;26.10;;
3487;SDS011;38546;48.170;11.724;2024-03-06T02:18:19;61.37;;;28.40;;
3487;SDS011;38546;48.170;11.724;2024-03-06T02:20:49;67.17;;;28.07;;
3487;SDS011;38546;48.170;11.724;2024-03-06T02:23:20;65.17;;;28.83;;
3487;SDS011;38546;48.170;11.724;2024-03-06T02:25:52;63.10;;;28.20;;
3487;SDS011;38546;48.170;11.724;2024-03-06T02:28:22;69.80;;;28.83;;
3487;SDS011;38546;48.170;11.724;2024-03-06T02:30:53;60.30;;;25.87;;
3487;SDS011;38546;48.170;11.724;2024-03-06T02:33:24;59.60;;;26.50;;
3487;SDS011;38546;48.170;11.724;2024-03-06T02:35:54;53.10;;;24.40;;
3487;SDS011;38546;48.170;11.724;2024-03-06T02:38:25;52.03;;;24.40;;
3487;SDS011;38546;48.170;11.724;2024-03-06T02:40:56;62.80;;;26.57;;
3487;SDS011;38546;48.170;11.724;2024-03-06T02:43:26;62.33;;;24.30;;
3487;SDS011;38546;48.170;11.724;2024-03-06T02:45:57;52.93;;;23.93;;
3487;SDS011;38546;48.170;11.724;2024-03-06T02:48:28;61.13;;;25.57;;
3487;SDS011;38546;48.170;11.724;2024-03-06T02:50:59;49.10;;;24.20;;
3487;SDS011;38546;48.170;11.724;2024-03-06T02:53:30;45.90;;;23.27;;
3487;SDS011;38546;48.170;11.724;2024-03-06T02:56:01;53.93;;;22.90;;
3487;SDS011;38546;48.170;11.724;2024-03-06T02:58:32;53.30;;;23.40;;
3487;SDS011;38546;48.170;11.724;2024-03-06T03:01:05;62.03;;;24.90;;
3487;SDS011;38546;48.170;11.724;2024-03-06T03:03:36;53.77;;;23.03;;
3487;SDS011;38546;48.170;11.724;2024-03-06T03:06:06;54.60;;;23.23;;
3487;SDS011;38546;48.170;11.724;2024-03-06T03:08:38;57.83;;;25.80;;
3487;SDS011;38546;48.170;11.724;2024-03-06T03:11:09;48.00;;;22.13;;
3487;SDS011;38546;48.170;11.724;2024-03-06T03:13:40;57.70;;;23.80;;
3487;SDS011;38546;48.170;11.724;2024-03-06T03:16:17;49.07;;;20.77;;
3487;SDS011;38546;48.170;11.724;2024-03-06T03:18:50;49.17;;;20.87;;
3487;SDS011;38546;48.170;11.724;2024-03-06T03:21:21;49.73;;;21.60;;
3487;SDS011;38546;48.170;11.724;2024-03-06T03:23:53;45.33;;;20.20;;
3487;SDS011;38546;48.170;11.724;2024-03-06T03:26:24;39.33;;;17.20;;
3487;SDS011;38546;48.170;11.724;2024-03-06T03:28:55;27.40;;;14.10;;
3487;SDS011;38546;48.170;11.724;2024-03-06T03:31:25;17.47;;;11.07;;
3487;SDS011;38546;48.170;11.724;2024-03-06T03:33:56;14.73;;;9.17;;
3487;SDS011;38546;48.170;11.724;2024-03-06T03:36:27;12.80;;;8.40;;
3487;SDS011;38546;48.170;11.724;2024-03-06T03:38:58;13.57;;;8.10;;
3487;SDS011;38546;48.170;11.724;2024-03-06T03:41:28;18.30;;;8.90;;
3487;SDS011;38546;48.170;11.724;2024-03-06T03:43:59;14.27;;;8.40;;
3487;SDS011;38546;48.170;11.724;2024-03-06T03:46:29;17.67;;;9.37;;
3487;SDS011;38546;48.170;11.724;2024-03-06T03:49:00;13.43;;;8.47;;
3487;SDS011;38546;48.170;11.724;2024-03-06T03:51:31;16.07;;;9.07;;
3487;SDS011;38546;48.170;11.724;2024-03-06T03:54:02;20.23;;;9.77;;
3487;SDS011;38546;48.170;11.724;2024-03-06T03:56:33;16.63;;;10.03;;
3487;SDS011;38546;48.170;11.724;2024-03-06T03:59:05;17.30;;;9.60;;
3487;SDS011;38546;48.170;11.724;2024-03-06T04:01:35;16.63;;;9.83;;
3487;SDS011;38546;48.170;11.724;2024-03-06T04:04:06;14.63;;;8.40;;
3487;SDS011;38546;48.170;11.724;2024-03-06T04:06:38;12.13;;;7.10;;
3487;SDS011;38546;48.170;11.724;2024-03-06T04:09:08;10.70;;;6.20;;
3487;SDS011;38546;48.170;11.724;2024-03-06T04:11:44;8.47;;;6.40;;
3487;SDS011;38546;48.170;11.724;2024-03-06T04:14:15;11.67;;;6.77;;
3487;SDS011;38546;48.170;11.724;2024-03-06T04:16:46;12.03;;;6.73;;
3487;SDS011;38546;48.170;11.724;2024-03-06T04:19:17;10.30;;;6.53;;
3487;SDS011;38546;48.170;11.724;2024-03-06T04:21:48;9.00;;;6.53;;
3487;SDS011;38546;48.170;11.724;2024-03-06T04:24:19;11.10;;;6.33;;
3487;SDS011;38546;48.170;11.724;2024-03-06T04:26:49;8.10;;;5.33;;
3487;SDS011;38546;48.170;11.724;2024-03-06T04:29:20;9.70;;;4.70;;
3487;SDS011;38546;48.170;11.724;2024-03-06T04:31:51;8.27;;;5.30;;
3487;SDS011;38546;48.170;11.724;2024-03-06T04:34:21;7.77;;;5.03;;
3487;SDS011;38546;48.170;11.724;2024-03-06T04:36:53;5.30;;;4.30;;
3487;SDS011;38546;48.170;11.724;2024-03-06T04:39:24;4.17;;;3.37;;
3487;SDS011;38546;48.170;11.724;2024-03-06T04:41:54;6.63;;;4.63;;
3487;SDS011;38546;48.170;11.724;2024-03-06T04:44:25;4.60;;;3.63;;
3487;SDS011;38546;48.170;11.724;2024-03-06T04:46:56;7.10;;;4.27;;
3487;SDS011;38546;48.170;11.724;2024-03-06T04:49:26;5.53;;;4.13;;
3487;SDS011;38546;48.170;11.724;2024-03-06T04:51:57;6.63;;;3.67;;
3487;SDS011;38546;48.170;11.724;2024-03-06T04:54:27;4.60;;;3.97;;
3487;SDS011;38546;48.170;11.724;2024-03-06T04:56:59;4.30;;;3.80;;
3487;SDS011;38546;48.170;11.724;2024-03-06T04:59:29;6.57;;;4.20;;
3487;SDS011;38546;48.170;11.724;2024-03-06T05:02:00;4.73;;;3.90;;
3487;SDS011;38546;48.170;11.724;2024-03-06T05:04:33;5.73;;;4.00;;
3487;SDS011;38546;48.170;11.724;2024-03-06T05:07:03;5.63;;;4.50;;
3487;SDS011;38546;48.170;11.724;2024-03-06T05:09:35;5.03;;;4.07;;
3487;SDS011;38546;48.170;11.724;2024-03-06T05:12:06;6.27;;;4.27;;
3487;SDS011;38546;48.170;11.724;2024-03-06T05:14:38;4.77;;;4.03;;
3487;SDS011;38546;48.170;11.724;2024-03-06T05:17:08;4.57;;;3.97;;
3487;SDS011;38546;48.170;11.724;2024-03-06T05:19:40;5.80;;;4.23;;
3487;SDS011;38546;48.170;11.724;2024-03-06T05:22:11;5.07;;;4.57;;
3487;SDS011;38546;48.170;11.724;2024-03-06T05:24:42;6.00;;;4.80;;
3487;SDS011;38546;48.170;11.724;2024-03-06T05:27:13;6.00;;;4.90;;
3487;SDS011;38546;48.170;11.724;2024-03-06T05:29:47;5.23;;;4.30;;
3487;SDS011;38546;48.170;11.724;2024-03-06T05:32:17;4.80;;;4.30;;
3487;SDS011;38546;48.170;11.724;2024-03-06T05:34:48;6.50;;;4.77;;
3487;SDS011;38546;48.170;11.724;2024-03-06T05:37:19;5.83;;;4.83;;
3487;SDS011;38546;48.170;11.724;2024-03-06T05:39:49;8.10;;;5.70;;
3487;SDS011;38546;48.170;11.724;2024-03-06T05:42:20;5.70;;;4.30;;
3487;SDS011;38546;48.170;11.724;2024-03-06T05:44:51;7.27;;;5.57;;
3487;SDS011;38546;48.170;11.724;2024-03-06T05:47:24;5.43;;;4.50;;
3487;SDS011;38546;48.170;11.724;2024-03-06T05:49:55;5.83;;;4.60;;
3487;SDS011;38546;48.170;11.724;2024-03-06T05:52:25;6.70;;;4.67;;
3487;SDS011;38546;48.170;11.724;2024-03-06T05:54:56;6.90;;;5.40;;
3487;SDS011;38546;48.170;11.724;2024-03-06T05:57:27;12.00;;;6.30;;
3487;SDS011;38546;48.170;11.724;2024-03-06T05:59:58;10.27;;;6.30;;
3487;SDS011;38546;48.170;11.724;2024-03-06T06:02:28;11.20;;;6.63;;
3487;SDS011;38546;48.170;11.724;2024-03-06T06:04:59;11.60;;;6.63;;
3487;SDS011;38546;48.170;11.724;2024-03-06T06:07:31;6.73;;;4.17;;
3487;SDS011;38546;48.170;11.724;2024-03-06T06:10:02;6.47;;;4.97;;
3487;SDS011;38546;48.170;11.724;2024-03-06T06:12:35;6.13;;;4.90;;
3487;SDS011;38546;48.170;11.724;2024-03-06T06:15:06;8.37;;;5.20;;
3487;SDS011;38546;48.170;11.724;2024-03-06T06:17:37;7.97;;;5.17;;
3487;SDS011;38546;48.170;11.724;2024-03-06T06:20:09;8.43;;;5.73;;
3487;SDS011;38546;48.170;11.724;2024-03-06T06:22:44;8.50;;;5.97;;
3487;SDS011;38546;48.170;11.724;2024-03-06T06:25:15;9.50;;;5.43;;
3487;SDS011;38546;48.170;11.724;2024-03-06T06:27:46;7.80;;;5.20;;
3487;SDS011;38546;48.170;11.724;2024-03-06T06:30:19;7.40;;;4.73;;
3487;SDS011;38546;48.170;11.724;2024-03-06T06:32:50;8.00;;;5.70;;
3487;SDS011;38546;48.170;11.724;2024-03-06T06:35:20;8.93;;;5.83;;
3487;SDS011;38546;48.170;11.724;2024-03-06T06:37:52;9.50;;;6.13;;
3487;SDS011;38546;48.170;11.724;2024-03-06T06:40:23;5.97;;;5.00;;
3487;SDS011;38546;48.170;11.724;2024-03-06T06:42:54;9.90;;;6.03;;
3487;SDS011;38546;48.170;11.724;2024-03-06T06:45:24;8.90;;;5.10;;
3487;SDS011;38546;48.170;11.724;2024-03-06T06:47:55;7.20;;;5.33;;
3487;SDS011;38546;48.170;11.724;2024-03-06T06:50:25;8.00;;;5.50;;
3487;SDS011;38546;48.170;11.724;2024-03-06T06:52:57;8.60;;;5.00;;
3487;SDS011;38546;48.170;11.724;2024-03-06T06:55:29;5.60;;;4.33;;
3487;SDS011;38546;48.170;11.724;2024-03-06T06:58:00;10.30;;;4.90;;
3487;SDS011;38546;48.170;11.724;2024-03-06T07:00:32;7.87;;;6.13;;
3487;SDS011;38546;48.170;11.724;2024-03-06T07:03:04;5.17;;;4.53;;
3487;SDS011;38546;48.170;11.724;2024-03-06T07:05:34;7.93;;;6.03;;
3487;SDS011;38546;48.170;11.724;2024-03-06T07:08:05;7.93;;;5.60;;
3487;SDS011;38546;48.170;11.724;2024-03-06T07:10:36;8.30;;;5.40;;
3487;SDS011;38546;48.170;11.724;2024-03-06T07:13:07;7.80;;;5.00;;
3487;SDS011;38546;48.170;11.724;2024-03-06T07:15:38;7.43;;;5.57;;
3487;SDS011;38546;48.170;11.724;2024-03-06T07:18:08;6.53;;;5.00;;
3487;SDS011;38546;48.170;11.724;2024-03-06T07:20:39;7.10;;;5.73;;
3487;SDS011;38546;48.170;11.724;2024-03-06T07:23:10;8.67;;;5.33;;
3487;SDS011;38546;48.170;11.724;2024-03-06T07:25:41;10.73;;;6.20;;
3487;SDS011;38546;48.170;11.724;2024-03-06T07:28:12;8.60;;;5.90;;
3487;SDS011;38546;48.170;11.724;2024-03-06T07:30:42;7.37;;;5.50;;
3487;SDS011;38546;48.170;11.724;2024-03-06T07:33:13;6.87;;;5.60;;
3487;SDS011;38546;48.170;11.724;2024-03-06T07:35:44;6.70;;;4.47;;
3487;SDS011;38546;48.170;11.724;2024-03-06T07:38:15;11.83;;;7.27;;
3487;SDS011;38546;48.170;11.724;2024-03-06T07:40:45;10.60;;;6.40;;
3487;SDS011;38546;48.170;11.724;2024-03-06T07:43:16;6.23;;;4.33;;
3487;SDS011;38546;48.170;11.724;2024-03-06T07:45:48;6.70;;;5.47;;
3487;SDS011;38546;48.170;11.724;2024-03-06T07:48:19;7.17;;;5.03;;
3487;SDS011;38546;48.170;11.724;2024-03-06T07:50:49;8.73;;;6.13;;
3487;SDS011;38546;48.170;11.724;2024-03-06T07:53:20;7.40;;;5.60;;
3487;SDS011;38546;48.170;11.724;2024-03-06T07:55:51;6.67;;;5.97;;
3487;SDS011;38546;48.170;11.724;2024-03-06T07:58:21;7.80;;;5.80;;
3487;SDS011;38546;48.170;11.724;2024-03-06T08:00:52;6.87;;;5.57;;
3487;SDS011;38546;48.170;11.724;2024-03-06T08:03:25;7.77;;;5.87;;
3487;SDS011;38546;48.170;11.724;2024-03-06T08:05:56;5.50;;;4.70;;
3487;SDS011;38546;48.170;11.724;2024-03-06T08:08:26;5.67;;;4.50;;
3487;SDS011;38546;48.170;11.724;2024-03-06T08:10:57;9.00;;;5.50;;
3487;SDS011;38546;48.170;11.724;2024-03-06T08:13:28;5.17;;;4.50;;
3487;SDS011;38546;48.170;11.724;2024-03-06T08:15:59;8.17;;;5.67;;
3487;SDS011;38546;48.170;11.724;2024-03-06T08:18:29;7.90;;;5.57;;
3487;SDS011;38546;48.170;11.724;2024-03-06T08:21:01;7.53;;;4.97;;
3487;SDS011;38546;48.170;11.724;2024-03-06T08:23:35;8.40;;;5.27;;
3487;SDS011;38546;48.170;11.724;2024-03-06T08:26:06;10.93;;;6.23;;
3487;SDS011;38546;48.170;11.724;2024-03-06T08:28:37;7.73;;;6.17;;
3487;SDS011;38546;48.170;11.724;2024-03-06T08:31:08;6.30;;;5.20;;
3487;SDS011;38546;48.170;11.724;2024-03-06T08:33:39;8.40;;;5.87;;
3487;SDS011;38546;48.170;11.724;2024-03-06T08:36:09;9.67;;;6.47;;
3487;SDS011;38546;48.170;11.724;2024-03-06T08:38:40;7.80;;;5.40;;
3487;SDS011;38546;48.170;11.724;2024-03-06T08:41:11;9.27;;;5.77;;
3487;SDS011;38546;48.170;11.724;2024-03-06T08:43:41;7.70;;;5.00;;
3487;SDS011;38546;48.170;11.724;2024-03-06T08:46:12;7.20;;;5.17;;
3487;SDS011;38546;48.170;11.724;2024-03-06T08:48:43;9.33;;;5.77;;
3487;SDS011;38546;48.170;11.724;2024-03-06T08:51:14;6.23;;;4.97;;
3487;SDS011;38546;48.170;11.724;2024-03-06T08:53:45;8.50;;;5.20;;
3487;SDS011;38546;48.170;11.724;2024-03-06T08:56:15;7.93;;;5.33;;
3487;SDS011;38546;48.170;11.724;2024-03-06T08:58:46;7.63;;;5.43;;
3487;SDS011;38546;48.170;11.724;2024-03-06T09:01:16;5.77;;;5.27;;
3487;SDS011;38546;48.170;11.724;2024-03-06T09:03:47;6.77;;;5.37;;
3487;SDS011;38546;48.170;11.724;2024-03-06T09:06:18;6.70;;;6.00;;
3487;SDS011;38546;48.170;11.724;2024-03-06T09:08:49;8.73;;;6.23;;
3487;SDS011;38546;48.170;11.724;2024-03-06T09:11:19;7.43;;;5.07;;
3487;SDS011;38546;48.170;11.724;2024-03-06T09:13:50;7.17;;;5.43;;
3487;SDS011;38546;48.170;11.724;2024-03-06T09:16:20;7.40;;;5.17;;
3487;SDS011;38546;48.170;11.724;2024-03-06T09:18:51;6.57;;;5.80;;
3487;SDS011;38546;48.170;11.724;2024-03-06T09:21:22;6.70;;;5.40;;
3487;SDS011;38546;48.170;11.724;2024-03-06T09:23:53;7.80;;;5.20;;
3487;SDS011;38546;48.170;11.724;2024-03-06T09:26:24;7.53;;;5.50;;
3487;SDS011;38546;48.170;11.724;2024-03-06T09:28:55;5.23;;;4.70;;
3487;SDS011;38546;48.170;11.724;2024-03-06T09:31:25;8.37;;;5.30;;
3487;SDS011;38546;48.170;11.724;2024-03-06T09:33:57;5.57;;;5.00;;
3487;SDS011;38546;48.170;11.724;2024-03-06T09:36:28;6.10;;;4.33;;
3487;SDS011;38546;48.170;11.724;2024-03-06T09:38:59;5.37;;;4.53;;
3487;SDS011;38546;48.170;11.724;2024-03-06T09:41:30;5.47;;;4.97;;
3487;SDS011;38546;48.170;11.724;2024-03-06T09:44:01;7.83;;;4.90;;
3487;SDS011;38546;48.170;11.724;2024-03-06T09:46:33;11.10;;;5.83;;
3487;SDS011;38546;48.170;11.724;2024-03-06T09:49:06;6.37;;;5.10;;
3487;SDS011;38546;48.170;11.724;2024-03-06T09:51:39;6.87;;;5.27;;
3487;SDS011;38546;48.170;11.724;2024-03-06T09:54:16;5.50;;;4.93;;
3487;SDS011;38546;48.170;11.724;2024-03-06T09:56:47;5.90;;;4.30;;
3487;SDS011;38546;48.170;11.724;2024-03-06T09:59:18;7.57;;;4.67;;
3487;SDS011;38546;48.170;11.724;2024-03-06T10:01:55;6.97;;;4.77;;
3487;SDS011;38546;48.170;11.724;2024-03-06T10:04:27;5.77;;;4.80;;
3487;SDS011;38546;48.170;11.724;2024-03-06T10:06:59;8.40;;;5.20;;
3487;SDS011;38546;48.170;11.724;2024-03-06T10:09:30;8.70;;;5.90;;
3487;SDS011;38546;48.170;11.724;2024-03-06T10:12:03;7.33;;;5.60;;
3487;SDS011;38546;48.170;11.724;2024-03-06T10:14:35;5.43;;;4.93;;
3487;SDS011;38546;48.170;11.724;2024-03-06T10:17:06;6.70;;;5.23;;
3487;SDS011;38546;48.170;11.724;2024-03-06T10:19:37;8.00;;;5.90;;
3487;SDS011;38546;48.170;11.724;2024-03-06T10:22:09;7.70;;;5.93;;
3487;SDS011;38546;48.170;11.724;2024-03-06T10:24:40;8.63;;;6.20;;
3487;SDS011;38546;48.170;11.724;2024-03-06T10:27:14;8.03;;;5.53;;
3487;SDS011;38546;48.170;11.724;2024-03-06T10:30:00;9.20;;;5.10;;
3487;SDS011;38546;48.170;11.724;2024-03-06T10:32:32;8.00;;;5.40;;
3487;SDS011;38546;48.170;11.724;2024-03-06T10:35:05;9.17;;;6.53;;
3487;SDS011;38546;48.170;11.724;2024-03-06T10:37:36;12.00;;;7.67;;
3487;SDS011;38546;48.170;11.724;2024-03-06T10:40:11;7.23;;;6.03;;
3487;SDS011;38546;48.170;11.724;2024-03-06T10:42:45;7.63;;;5.40;;
3487;SDS011;38546;48.170;11.724;2024-03-06T10:45:17;8.90;;;5.90;;
3487;SDS011;38546;48.170;11.724;2024-03-06T10:47:54;8.30;;;5.50;;
3487;SDS011;38546;48.170;11.724;2024-03-06T10:50:25;9.73;;;6.27;;
3487;SDS011;38546;48.170;11.724;2024-03-06T10:52:56;13.97;;;7.97;;
3487;SDS011;38546;48.170;11.724;2024-03-06T10:55:28;7.67;;;6.20;;
3487;SDS011;38546;48.170;11.724;2024-03-06T10:58:07;10.97;;;6.57;;
3487;SDS011;38546;48.170;11.724;2024-03-06T11:00:39;9.30;;;6.63;;
3487;SDS011;38546;48.170;11.724;2024-03-06T11:03:16;9.30;;;6.30;;
3487;SDS011;38546;48.170;11.724;2024-03-06T11:05:48;9.70;;;6.77;;
3487;SDS011;38546;48.170;11.724;2024-03-06T11:08:21;9.27;;;6.30;;
3487;SDS011;38546;48.170;11.724;2024-03-06T11:10:53;10.43;;;7.10;;
3487;SDS011;38546;48.170;11.724;2024-03-06T11:13:23;12.63;;;7.13;;
3487;SDS011;38546;48.170;11.724;2024-03-06T11:15:59;11.97;;;6.57;;
3487;SDS011;38546;48.170;11.724;2024-03-06T11:18:40;12.33;;;7.03;;
3487;SDS011;38546;48.170;11.724;2024-03-06T11:24:11;11.20;;;7.93;;
3487;SDS011;38546;48.170;11.724;2024-03-06T11:26:46;16.20;;;8.93;;
3487;SDS011;38546;48.170;11.724;2024-03-06T11:30:02;13.47;;;9.50;;
3487;SDS011;38546;48.170;11.724;2024-03-06T11:32:59;10.33;;;6.90;;
3487;SDS011;38546;48.170;11.724;2024-03-06T11:35:31;11.20;;;7.67;;
3487;SDS011;38546;48.170;11.724;2024-03-06T11:38:01;15.07;;;8.13;;
3487;SDS011;38546;48.170;11.724;2024-03-06T11:40:43;16.50;;;9.30;;
3487;SDS011;38546;48.170;11.724;2024-03-06T11:43:26;12.17;;;8.53;;
3487;SDS011;38546;48.170;11.724;2024-03-06T11:46:10;16.40;;;8.63;;
3487;SDS011;38546;48.170;11.724;2024-03-06T11:48:41;15.23;;;8.73;;
3487;SDS011;38546;48.170;11.724;2024-03-06T11:51:12;16.43;;;9.20;;
3487;SDS011;38546;48.170;11.724;2024-03-06T11:53:43;14.30;;;8.93;;
3487;SDS011;38546;48.170;11.724;2024-03-06T11:56:14;14.00;;;8.83;;
3487;SDS011;38546;48.170;11.724;2024-03-06T11:58:47;15.60;;;9.90;;
3487;SDS011;38546;48.170;11.724;2024-03-06T12:01:18;16.80;;;9.53;;
3487;SDS011;38546;48.170;11.724;2024-03-06T12:03:49;10.37;;;8.43;;
3487;SDS011;38546;48.170;11.724;2024-03-06T12:06:20;14.07;;;9.57;;
3487;SDS011;38546;48.170;11.724;2024-03-06T12:08:53;17.77;;;10.50;;
3487;SDS011;38546;48.170;11.724;2024-03-06T12:11:24;28.17;;;14.20;;
3487;SDS011;38546;48.170;11.724;2024-03-06T12:13:55;24.50;;;11.77;;
3487;SDS011;38546;48.170;11.724;2024-03-06T12:16:26;17.00;;;9.60;;
3487;SDS011;38546;48.170;11.724;2024-03-06T12:18:57;15.57;;;10.20;;
3487;SDS011;38546;48.170;11.724;2024-03-06T12:21:32;15.97;;;9.67;;
3487;SDS011;38546;48.170;11.724;2024-03-06T12:24:07;12.77;;;8.17;;
3487;SDS011;38546;48.170;11.724;2024-03-06T12:26:39;12.30;;;8.23;;
3487;SDS011;38546;48.170;11.724;2024-03-06T12:29:16;9.67;;;8.10;;
3487;SDS011;38546;48.170;11.724;2024-03-06T12:31:49;13.40;;;7.30;;
3487;SDS011;38546;48.170;11.724;2024-03-06T12:34:19;11.77;;;7.80;;
3487;SDS011;38546;48.170;11.724;2024-03-06T12:36:51;12.07;;;8.10;;
3487;SDS011;38546;48.170;11.724;2024-03-06T12:39:23;15.30;;;8.47;;
3487;SDS011;38546;48.170;11.724;2024-03-06T12:41:54;15.37;;;8.27;;
3487;SDS011;38546;48.170;11.724;2024-03-06T12:44:24;13.07;;;7.13;;
3487;SDS011;38546;48.170;11.724;2024-03-06T12:46:55;14.63;;;8.50;;
3487;SDS011;38546;48.170;11.724;2024-03-06T12:49:26;16.37;;;9.20;;
3487;SDS011;38546;48.170;11.724;2024-03-06T12:51:56;18.57;;;11.13;;
3487;SDS011;38546;48.170;11.724;2024-03-06T12:54:27;20.27;;;10.63;;
3487;SDS011;38546;48.170;11.724;2024-03-06T12:56:58;14.17;;;9.67;;
3487;SDS011;38546;48.170;11.724;2024-03-06T12:59:29;30.77;;;16.27;;
3487;SDS011;38546;48.170;11.724;2024-03-06T13:01:59;21.13;;;11.03;;
3487;SDS011;38546;48.170;11.724;2024-03-06T13:04:30;18.03;;;9.40;;
3487;SDS011;38546;48.170;11.724;2024-03-06T13:07:01;18.07;;;9.90;;
3487;SDS011;38546;48.170;11.724;2024-03-06T13:09:32;15.30;;;10.00;;
3487;SDS011;38546;48.170;11.724;2024-03-06T13:12:04;26.77;;;15.73;;
3487;SDS011;38546;48.170;11.724;2024-03-06T13:14:36;22.13;;;11.33;;
3487;SDS011;38546;48.170;11.724;2024-03-06T13:17:06;27.07;;;12.83;;
3487;SDS011;38546;48.170;11.724;2024-03-06T13:19:37;16.40;;;9.07;;
3487;SDS011;38546;48.170;11.724;2024-03-06T13:22:08;14.57;;;8.97;;
3487;SDS011;38546;48.170;11.724;2024-03-06T13:24:39;18.77;;;10.30;;
3487;SDS011;38546;48.170;11.724;2024-03-06T13:27:09;18.47;;;9.83;;
3487;SDS011;38546;48.170;11.724;2024-03-06T13:29:40;16.33;;;10.97;;
3487;SDS011;38546;48.170;11.724;2024-03-06T13:32:10;14.77;;;8.77;;
3487;SDS011;38546;48.170;11.724;2024-03-06T13:34:41;13.87;;;7.80;;
3487;SDS011;38546;48.170;11.724;2024-03-06T13:37:12;11.60;;;8.40;;
3487;SDS011;38546;48.170;11.724;2024-03-06T13:39:42;9.53;;;6.50;;
3487;SDS011;38546;48.170;11.724;2024-03-06T13:42:13;17.03;;;8.13;;
3487;SDS011;38546;48.170;11.724;2024-03-06T13:44:44;11.63;;;7.93;;
3487;SDS011;38546;48.170;11.724;2024-03-06T13:47:15;12.77;;;8.70;;
3487;SDS011;38546;48.170;11.724;2024-03-06T13:49:48;17.60;;;10.27;;
3487;SDS011;38546;48.170;11.724;2024-03-06T13:52:19;13.47;;;8.50;;
3487;SDS011;38546;48.170;11.724;2024-03-06T13:54:51;16.90;;;9.90;;
3487;SDS011;38546;48.170;11.724;2024-03-06T13:57:21;17.03;;;8.90;;
3487;SDS011;38546;48.170;11.724;2024-03-06T13:59:52;13.00;;;8.60;;
3487;SDS011;38546;48.170;11.724;2024-03-06T14:02:23;12.40;;;8.37;;
3487;SDS011;38546;48.170;11.724;2024-03-06T14:04:53;10.87;;;8.30;;
3487;SDS011;38546;48.170;11.724;2024-03-06T14:07:24;10.23;;;7.50;;
3487;SDS011;38546;48.170;11.724;2024-03-06T14:09:55;16.63;;;8.53;;
3487;SDS011;38546;48.170;11.724;2024-03-06T14:12:27;8.63;;;7.33;;
3487;SDS011;38546;48.170;11.724;2024-03-06T14:14:57;12.13;;;7.87;;
3487;SDS011;38546;48.170;11.724;2024-03-06T14:17:28;11.63;;;7.37;;
3487;SDS011;38546;48.170;11.724;2024-03-06T14:19:58;9.33;;;6.73;;
3487;SDS011;38546;48.170;11.724;2024-03-06T14:22:29;11.17;;;7.67;;
3487;SDS011;38546;48.170;11.724;2024-03-06T14:25:00;8.93;;;7.67;;
3487;SDS011;38546;48.170;11.724;2024-03-06T14:27:30;9.17;;;6.90;;
3487;SDS011;38546;48.170;11.724;2024-03-06T14:30:01;9.57;;;6.50;;
3487;SDS011;38546;48.170;11.724;2024-03-06T14:32:41;11.03;;;6.77;;
3487;SDS011;38546;48.170;11.724;2024-03-06T14:35:13;8.67;;;6.37;;
3487;SDS011;38546;48.170;11.724;2024-03-06T14:37:45;8.30;;;7.13;;
3487;SDS011;38546;48.170;11.724;2024-03-06T14:40:15;8.23;;;5.40;;
3487;SDS011;38546;48.170;11.724;2024-03-06T14:42:46;8.40;;;6.30;;
3487;SDS011;38546;48.170;11.724;2024-03-06T14:45:17;7.17;;;5.80;;
3487;SDS011;38546;48.170;11.724;2024-03-06T14:47:47;9.20;;;6.10;;
3487;SDS011;38546;48.170;11.724;2024-03-06T14:50:18;10.90;;;6.50;;
3487;SDS011;38546;48.170;11.724;2024-03-06T14:52:49;6.77;;;5.73;;
3487;SDS011;38546;48.170;11.724;2024-03-06T14:55:19;8.60;;;6.00;;
3487;SDS011;38546;48.170;11.724;2024-03-06T14:57:50;10.40;;;5.93;;
3487;SDS011;38546;48.170;11.724;2024-03-06T15:00:20;12.10;;;7.60;;
3487;SDS011;38546;48.170;11.724;2024-03-06T15:02:51;9.43;;;7.17;;
3487;SDS011;38546;48.170;11.724;2024-03-06T15:05:22;7.27;;;5.80;;